Time;durP1;ratioP1;P1;durP2;ratioP2;P2;SDS_P1;SDS_P2;PMS_P1;PMS_P2;Temp;Humidity;BMP_temperature;BMP_pressure;BME280_temperature;BME280_humidity;BME280_pressure;Samples;Min_cycle;Max_cycle;Signal;HPM_P1;HPM_P2
2022/07/18 00:01:58;;;;;;;2.27;0.90;;;;;;;;;;8283764;28;20041;-60
2022/07/18 00:05:58;;;;;;;1.25;0.88;;;;;;;;;;8285219;28;20017;-60
2022/07/18 00:09:59;;;;;;;1.60;0.80;;;;;;;;;;8282456;28;20033;-60
2022/07/18 00:14:00;;;;;;;1.63;0.90;;;;;;;;;;8283871;28;20029;-61
2022/07/18 00:18:00;;;;;;;1.80;0.80;;;;;;;;;;8283305;28;20076;-61
2022/07/18 00:22:01;;;;;;;2.08;0.77;;;;;;;;;;8283162;28;20018;-61
2022/07/18 00:26:02;;;;;;;2.20;0.90;;;;;;;;;;8284278;28;20136;-62
2022/07/18 00:30:04;;;;;;;5.55;1.02;;;;;;;;;;8282377;28;20583;-61
2022/07/18 00:34:04;;;;;;;2.67;0.80;;;;;;;;;;8286591;28;20041;-61
2022/07/18 00:38:05;;;;;;;1.05;0.80;;;;;;;;;;8283938;28;20032;-61
2022/07/18 00:42:05;;;;;;;1.17;0.80;;;;;;;;;;8280652;28;20092;-61
2022/07/18 00:46:05;;;;;;;1.00;0.90;;;;;;;;;;8284076;28;20788;-63
2022/07/18 00:50:07;;;;;;;3.15;1.00;;;;;;;;;;8283144;28;20258;-61
2022/07/18 00:54:07;;;;;;;2.75;1.00;;;;;;;;;;8283966;28;20036;-62
2022/07/18 00:58:08;;;;;;;2.15;1.10;;;;;;;;;;8280703;28;20029;-62
2022/07/18 01:02:08;;;;;;;1.52;0.80;;;;;;;;;;8281887;28;20065;-61
2022/07/18 01:06:09;;;;;;;1.17;0.95;;;;;;;;;;8282211;28;20025;-61
2022/07/18 01:10:09;;;;;;;2.65;0.90;;;;;;;;;;8283643;28;20026;-61
2022/07/18 01:14:09;;;;;;;1.90;0.80;;;;;;;;;;8281853;28;20027;-62
2022/07/18 01:18:10;;;;;;;3.15;0.98;;;;;;;;;;8281448;28;20412;-61
2022/07/18 01:22:10;;;;;;;3.35;0.80;;;;;;;;;;8283482;28;20060;-61
2022/07/18 01:26:12;;;;;;;2.35;0.90;;;;;;;;;;8292950;28;20022;-61
2022/07/18 01:30:14;;;;;;;1.05;0.90;;;;;;;;;;8292476;28;20120;-60
2022/07/18 01:34:14;;;;;;;1.67;0.90;;;;;;;;;;8292324;28;20028;-60
2022/07/18 01:38:19;;;;;;;1.33;0.88;;;;;;;;;;8292404;28;20026;-61
2022/07/18 01:42:19;;;;;;;1.95;0.80;;;;;;;;;;8292508;28;20040;-60
2022/07/18 01:46:19;;;;;;;1.67;1.00;;;;;;;;;;8293677;28;20687;-61
2022/07/18 01:50:20;;;;;;;2.77;1.10;;;;;;;;;;8292425;28;20026;-60
2022/07/18 01:54:21;;;;;;;1.60;0.80;;;;;;;;;;8293297;28;20116;-61
2022/07/18 01:58:21;;;;;;;2.47;1.10;;;;;;;;;;8294076;28;20048;-60
2022/07/18 02:02:21;;;;;;;1.27;1.00;;;;;;;;;;8289980;28;20173;-60
2022/07/18 02:06:22;;;;;;;2.15;0.90;;;;;;;;;;8291323;28;20021;-60
2022/07/18 02:10:22;;;;;;;0.93;0.87;;;;;;;;;;8291526;28;20013;-61
2022/07/18 02:14:22;;;;;;;1.88;1.00;;;;;;;;;;8291673;28;20391;-61
2022/07/18 02:18:22;;;;;;;4.90;1.88;;;;;;;;;;8293722;28;20094;-60
2022/07/18 02:22:23;;;;;;;1.77;0.95;;;;;;;;;;8289508;28;20452;-60
2022/07/18 02:26:24;;;;;;;1.50;1.02;;;;;;;;;;8293951;28;20083;-60
2022/07/18 02:30:24;;;;;;;3.25;1.00;;;;;;;;;;8292306;28;20034;-60
2022/07/18 02:34:24;;;;;;;3.38;1.17;;;;;;;;;;8290154;28;20037;-60
2022/07/18 02:38:24;;;;;;;1.13;1.00;;;;;;;;;;8288672;28;20571;-60
2022/07/18 02:42:25;;;;;;;2.03;1.00;;;;;;;;;;8284210;28;20030;-61
2022/07/18 02:46:25;;;;;;;4.10;1.35;;;;;;;;;;8285623;28;20129;-60
2022/07/18 02:50:25;;;;;;;1.70;1.03;;;;;;;;;;8294852;28;20918;-60
2022/07/18 02:54:26;;;;;;;2.40;1.00;;;;;;;;;;8287376;28;20647;-60
2022/07/18 02:58:26;;;;;;;5.95;1.10;;;;;;;;;;8288911;28;20351;-61
2022/07/18 03:02:26;;;;;;;1.37;1.00;;;;;;;;;;8285417;28;20100;-61
2022/07/18 03:06:26;;;;;;;1.55;1.02;;;;;;;;;;8284618;28;20030;-60
2022/07/18 03:10:27;;;;;;;2.63;1.05;;;;;;;;;;8284313;28;20100;-60
2022/07/18 03:14:27;;;;;;;2.85;1.15;;;;;;;;;;8285877;28;20036;-60
2022/07/18 03:18:27;;;;;;;3.10;1.00;;;;;;;;;;8285896;28;20053;-60
2022/07/18 03:22:27;;;;;;;3.33;1.00;;;;;;;;;;8285904;28;20683;-61
2022/07/18 03:26:28;;;;;;;2.83;1.13;;;;;;;;;;8286987;28;20447;-60
2022/07/18 03:30:28;;;;;;;5.40;1.40;;;;;;;;;;8285274;28;20048;-61
2022/07/18 03:34:30;;;;;;;2.05;1.23;;;;;;;;;;8287678;28;20025;-61
2022/07/18 03:38:30;;;;;;;4.10;1.13;;;;;;;;;;8285131;28;20948;-61
2022/07/18 03:42:30;;;;;;;4.43;1.30;;;;;;;;;;8282764;28;20029;-60
2022/07/18 03:46:31;;;;;;;2.47;1.08;;;;;;;;;;8283033;28;20034;-62
2022/07/18 03:50:32;;;;;;;1.45;1.02;;;;;;;;;;8284578;28;20021;-62
2022/07/18 03:54:33;;;;;;;2.10;0.93;;;;;;;;;;8283390;28;20081;-61
2022/07/18 03:58:33;;;;;;;1.10;0.90;;;;;;;;;;8282952;28;20281;-61
2022/07/18 04:02:37;;;;;;;1.70;1.20;;;;;;;;;;8282163;28;20048;-61
2022/07/18 04:06:37;;;;;;;4.05;1.20;;;;;;;;;;8285495;28;20025;-62
2022/07/18 04:10:39;;;;;;;2.47;1.30;;;;;;;;;;8284025;28;20172;-62
2022/07/18 04:14:39;;;;;;;2.40;1.20;;;;;;;;;;8285904;28;20284;-61
2022/07/18 04:18:40;;;;;;;1.80;1.05;;;;;;;;;;8285331;28;20065;-60
2022/07/18 04:22:44;;;;;;;2.85;0.93;;;;;;;;;;8281274;28;20029;-60
2022/07/18 04:26:44;;;;;;;2.30;1.00;;;;;;;;;;8284430;28;20025;-60
2022/07/18 04:30:44;;;;;;;2.58;1.25;;;;;;;;;;8313037;28;21099;-60
2022/07/18 04:34:44;;;;;;;1.70;1.20;;;;;;;;;;8280615;28;20033;-61
2022/07/18 04:38:45;;;;;;;2.10;1.10;;;;;;;;;;8282821;28;20113;-61
2022/07/18 04:42:45;;;;;;;2.88;0.90;;;;;;;;;;8279966;28;20855;-61
2022/07/18 04:46:45;;;;;;;5.40;1.08;;;;;;;;;;8283836;28;20032;-67
2022/07/18 04:50:46;;;;;;;2.28;1.00;;;;;;;;;;8281684;28;20018;-61
2022/07/18 04:54:46;;;;;;;2.50;0.93;;;;;;;;;;8281906;28;20029;-61
2022/07/18 04:58:46;;;;;;;1.63;0.90;;;;;;;;;;8282333;28;20033;-61
2022/07/18 05:02:48;;;;;;;6.90;1.20;;;;;;;;;;8281207;28;20084;-61
2022/07/18 05:06:48;;;;;;;2.60;0.95;;;;;;;;;;8283567;28;20021;-61
2022/07/18 05:10:48;;;;;;;5.63;1.10;;;;;;;;;;8282764;28;20671;-61
2022/07/18 05:14:49;;;;;;;2.43;1.17;;;;;;;;;;8283039;28;20724;-61
2022/07/18 05:18:49;;;;;;;1.60;1.10;;;;;;;;;;8280242;28;20396;-60
2022/07/18 05:22:51;;;;;;;2.50;0.90;;;;;;;;;;8283625;28;20029;-60
2022/07/18 05:26:51;;;;;;;1.77;1.05;;;;;;;;;;8280730;28;20806;-60
2022/07/18 05:30:54;;;;;;;1.25;1.00;;;;;;;;;;8281509;28;20052;-61
2022/07/18 05:34:54;;;;;;;3.50;1.05;;;;;;;;;;8280948;28;20383;-61
2022/07/18 05:38:54;;;;;;;4.20;1.15;;;;;;;;;;8279294;28;20108;-62
2022/07/18 05:42:54;;;;;;;2.58;1.20;;;;;;;;;;8279770;28;20230;-61
2022/07/18 05:46:55;;;;;;;2.47;1.00;;;;;;;;;;8281658;28;20037;-61
2022/07/18 05:50:55;;;;;;;2.73;1.10;;;;;;;;;;8282063;28;20770;-61
2022/07/18 05:54:55;;;;;;;3.78;1.10;;;;;;;;;;8282542;28;20281;-62
2022/07/18 05:58:55;;;;;;;1.40;1.10;;;;;;;;;;8280428;28;20030;-61
2022/07/18 06:02:56;;;;;;;3.42;0.90;;;;;;;;;;8278581;28;20034;-62
2022/07/18 06:06:56;;;;;;;1.10;1.00;;;;;;;;;;8282039;28;20030;-61
2022/07/18 06:10:56;;;;;;;4.60;1.50;;;;;;;;;;8281493;28;20111;-60
2022/07/18 06:38:07;;;;;;;4.47;1.10;;;;;;;;;;8304893;28;20394;-61
2022/07/18 06:42:07;;;;;;;3.35;1.10;;;;;;;;;;8285160;28;20029;-61
2022/07/18 06:46:07;;;;;;;3.33;1.00;;;;;;;;;;8283408;28;20076;-61
2022/07/18 06:50:07;;;;;;;2.22;1.20;;;;;;;;;;8281243;28;20017;-61
2022/07/18 06:54:08;;;;;;;2.15;1.02;;;;;;;;;;8284793;28;20025;-62
2022/07/18 06:58:09;;;;;;;2.87;1.10;;;;;;;;;;8283405;28;20022;-61
2022/07/18 07:02:09;;;;;;;3.33;1.17;;;;;;;;;;8283542;28;20072;-61
2022/07/18 07:06:10;;;;;;;1.95;1.20;;;;;;;;;;8287979;28;20025;-62
2022/07/18 07:10:10;;;;;;;2.80;1.20;;;;;;;;;;8284112;28;20072;-61
2022/07/18 07:14:11;;;;;;;5.22;1.05;;;;;;;;;;8281613;28;20301;-61
2022/07/18 07:18:11;;;;;;;4.27;1.00;;;;;;;;;;8279702;28;20060;-61
2022/07/18 07:22:11;;;;;;;2.33;1.00;;;;;;;;;;8278850;28;20136;-61
2022/07/18 07:26:11;;;;;;;1.73;1.00;;;;;;;;;;8283056;28;20478;-62
2022/07/18 07:30:13;;;;;;;1.40;1.00;;;;;;;;;;8284587;28;20022;-61
2022/07/18 07:34:14;;;;;;;1.23;0.80;;;;;;;;;;8287463;28;20021;-61
2022/07/18 07:38:18;;;;;;;3.77;1.20;;;;;;;;;;8282304;28;20126;-61
2022/07/18 07:42:18;;;;;;;2.80;0.90;;;;;;;;;;8283699;28;20308;-61
2022/07/18 07:46:18;;;;;;;3.72;1.40;;;;;;;;;;8282529;28;20132;-61
2022/07/18 07:50:19;;;;;;;3.55;1.20;;;;;;;;;;8280681;28;20178;-61
2022/07/18 07:54:19;;;;;;;4.13;1.37;;;;;;;;;;8285839;28;20207;-61
2022/07/18 07:58:19;;;;;;;2.25;1.00;;;;;;;;;;8283836;28;20084;-61
2022/07/18 08:02:19;;;;;;;3.67;1.50;;;;;;;;;;8281301;28;20041;-61
2022/07/18 08:06:20;;;;;;;1.40;0.93;;;;;;;;;;8284620;28;20148;-61
2022/07/18 08:10:21;;;;;;;2.87;1.30;;;;;;;;;;8282787;28;20512;-61
2022/07/18 08:14:21;;;;;;;1.45;1.00;;;;;;;;;;8285273;28;20032;-61
2022/07/18 08:18:21;;;;;;;1.83;1.20;;;;;;;;;;8280768;28;20041;-61
2022/07/18 08:22:21;;;;;;;3.20;1.20;;;;;;;;;;8280282;28;20071;-61
2022/07/18 08:26:21;;;;;;;1.65;1.27;;;;;;;;;;8278466;28;20030;-61
2022/07/18 08:30:22;;;;;;;3.35;1.20;;;;;;;;;;8291961;28;20672;-61
2022/07/18 08:34:22;;;;;;;1.33;1.00;;;;;;;;;;8280609;28;20816;-61
2022/07/18 08:38:22;;;;;;;1.92;1.10;;;;;;;;;;8281487;28;20098;-63
2022/07/18 08:42:25;;;;;;;1.25;1.05;;;;;;;;;;8281847;28;20783;-60
2022/07/18 08:46:26;;;;;;;3.33;1.10;;;;;;;;;;8281269;28;20044;-60
2022/07/18 08:50:26;;;;;;;3.60;1.20;;;;;;;;;;8281993;28;20036;-60
2022/07/18 08:54:26;;;;;;;2.30;1.33;;;;;;;;;;8282234;28;20048;-60
2022/07/18 08:58:27;;;;;;;1.60;1.13;;;;;;;;;;8278673;28;20038;-60
2022/07/18 09:02:27;;;;;;;3.90;1.20;;;;;;;;;;8279930;28;20076;-60
2022/07/18 09:06:40;;;;;;;3.03;1.10;;;;;;;;;;8280514;28;21037;-60
2022/07/18 09:10:58;;;;;;;2.80;1.20;;;;;;;;;;8278950;28;20040;-60
2022/07/18 09:15:10;;;;;;;3.70;1.05;;;;;;;;;;8280868;28;20403;-60
2022/07/18 09:19:15;;;;;;;0.95;0.90;;;;;;;;;;8314254;28;20151;-60
2022/07/18 09:23:17;;;;;;;5.18;1.35;;;;;;;;;;8312269;28;20448;-60
2022/07/18 09:27:24;;;;;;;2.10;1.35;;;;;;;;;;8314111;28;20032;-60
2022/07/18 09:31:25;;;;;;;2.65;1.02;;;;;;;;;;8302538;28;20154;-60
2022/07/18 09:35:29;;;;;;;5.83;1.20;;;;;;;;;;8280452;28;20026;-59
2022/07/18 09:39:29;;;;;;;5.60;1.23;;;;;;;;;;8281900;28;20047;-59
2022/07/18 09:43:36;;;;;;;4.05;1.20;;;;;;;;;;8278995;28;20486;-60
2022/07/18 09:47:53;;;;;;;1.73;1.27;;;;;;;;;;8308828;28;20052;-60
2022/07/18 09:52:07;;;;;;;1.90;1.00;;;;;;;;;;8316970;28;20027;-60
2022/07/18 09:56:11;;;;;;;2.53;1.23;;;;;;;;;;8319382;28;20025;-60
2022/07/18 10:00:12;;;;;;;6.50;1.20;;;;;;;;;;8318796;28;20017;-60
2022/07/18 10:04:12;;;;;;;7.30;1.10;;;;;;;;;;8315784;28;20116;-60
2022/07/18 10:08:13;;;;;;;6.03;1.30;;;;;;;;;;8317879;28;20013;-60
2022/07/18 10:12:14;;;;;;;3.67;1.30;;;;;;;;;;8317352;28;20478;-60
2022/07/18 10:16:14;;;;;;;3.08;1.00;;;;;;;;;;8309701;28;20049;-60
2022/07/18 10:20:15;;;;;;;7.70;1.30;;;;;;;;;;8283147;28;20030;-60
2022/07/18 10:24:18;;;;;;;6.00;1.20;;;;;;;;;;8285515;28;20374;-60
2022/07/18 10:28:19;;;;;;;7.53;1.30;;;;;;;;;;8284380;28;20100;-60
2022/07/18 10:32:31;;;;;;;2.47;1.10;;;;;;;;;;8284289;28;20091;-60
2022/07/18 10:36:31;;;;;;;4.60;0.90;;;;;;;;;;8286931;28;20041;-60
2022/07/18 10:40:31;;;;;;;2.27;1.10;;;;;;;;;;8283621;28;20026;-60
2022/07/18 10:44:34;;;;;;;1.98;0.93;;;;;;;;;;8286919;28;20045;-60
2022/07/18 10:48:37;;;;;;;5.47;1.10;;;;;;;;;;8283477;28;20352;-59
2022/07/18 10:52:40;;;;;;;6.78;1.00;;;;;;;;;;8288520;28;20029;-59
2022/07/18 10:56:40;;;;;;;2.42;1.00;;;;;;;;;;8284452;28;20669;-60
2022/07/18 11:00:42;;;;;;;4.00;1.23;;;;;;;;;;8283822;28;20099;-59
2022/07/18 11:04:42;;;;;;;4.30;1.10;;;;;;;;;;8286496;28;20025;-60
2022/07/18 11:08:42;;;;;;;1.65;1.00;;;;;;;;;;8279241;28;20079;-60
2022/07/18 11:12:44;;;;;;;2.37;1.30;;;;;;;;;;8279142;28;20905;-60
2022/07/18 11:17:03;;;;;;;5.65;1.27;;;;;;;;;;8279987;28;20103;-61
2022/07/18 11:21:15;;;;;;;2.58;1.10;;;;;;;;;;8281464;28;20520;-61
2022/07/18 11:25:16;;;;;;;4.13;1.30;;;;;;;;;;8281994;28;20081;-61
2022/07/18 11:29:18;;;;;;;1.77;1.10;;;;;;;;;;8282579;28;20060;-60
2022/07/18 11:33:22;;;;;;;3.80;1.20;;;;;;;;;;8280334;28;20085;-60
2022/07/18 11:37:23;;;;;;;2.05;1.10;;;;;;;;;;8283523;28;20375;-60
2022/07/18 11:41:23;;;;;;;1.27;0.95;;;;;;;;;;8279961;28;20034;-60
2022/07/18 11:45:23;;;;;;;4.97;1.00;;;;;;;;;;8281251;28;20041;-60
2022/07/18 11:49:24;;;;;;;4.10;1.23;;;;;;;;;;8277959;28;20268;-60
2022/07/18 11:53:24;;;;;;;2.58;1.00;;;;;;;;;;8278528;28;20036;-60
2022/07/18 11:57:27;;;;;;;3.13;1.20;;;;;;;;;;8279860;28;20134;-60
2022/07/18 12:01:32;;;;;;;2.28;1.00;;;;;;;;;;8279997;28;20914;-60
2022/07/18 12:05:33;;;;;;;2.25;1.20;;;;;;;;;;8279242;28;20022;-60
2022/07/18 12:09:33;;;;;;;;;;;;;;;;;;8279239;28;20437;-60
2022/07/18 12:13:45;;;;;;;3.97;1.17;;;;;;;;;;8277420;28;19913;-60
2022/07/18 12:17:46;;;;;;;2.80;1.00;;;;;;;;;;8273225;28;20034;-60
2022/07/18 12:22:05;;;;;;;3.47;1.08;;;;;;;;;;8276052;28;20514;-61
2022/07/18 12:26:05;;;;;;;4.97;1.20;;;;;;;;;;8270966;28;20042;-61
2022/07/18 12:30:06;;;;;;;4.53;1.20;;;;;;;;;;8273861;28;20039;-61
2022/07/18 12:34:06;;;;;;;3.50;1.20;;;;;;;;;;8273788;28;20025;-59
2022/07/18 12:38:08;;;;;;;3.05;1.20;;;;;;;;;;8276184;28;20053;-61
2022/07/18 12:42:08;;;;;;;2.67;1.30;;;;;;;;;;8277084;28;20030;-60
2022/07/18 12:46:10;;;;;;;3.23;1.10;;;;;;;;;;8273425;28;20505;-61
2022/07/18 12:50:10;;;;;;;5.50;1.35;;;;;;;;;;8272055;28;20490;-62
2022/07/18 12:54:10;;;;;;;7.03;1.30;;;;;;;;;;8274842;28;20473;-60
2022/07/18 12:58:10;;;;;;;6.13;1.30;;;;;;;;;;8275618;28;20029;-61
2022/07/18 13:02:11;;;;;;;7.88;1.45;;;;;;;;;;8271834;28;20037;-60
2022/07/18 13:06:11;;;;;;;3.20;1.33;;;;;;;;;;8272942;28;20023;-60
2022/07/18 13:10:11;;;;;;;5.28;1.20;;;;;;;;;;8266878;28;20553;-60
2022/07/18 13:14:12;;;;;;;2.90;1.13;;;;;;;;;;8274758;28;20029;-60
2022/07/18 13:18:12;;;;;;;5.90;1.15;;;;;;;;;;8274943;28;20049;-61
2022/07/18 13:22:12;;;;;;;5.25;1.10;;;;;;;;;;8274489;28;20396;-60
2022/07/18 13:26:12;;;;;;;4.00;1.23;;;;;;;;;;8272777;28;20518;-59
2022/07/18 13:30:12;;;;;;;3.85;1.00;;;;;;;;;;8273928;28;20025;-60
2022/07/18 13:34:13;;;;;;;3.05;1.15;;;;;;;;;;8272659;28;20033;-59
2022/07/18 13:38:13;;;;;;;1.20;1.10;;;;;;;;;;8275631;28;20482;-59
2022/07/18 13:42:13;;;;;;;5.03;1.30;;;;;;;;;;8274957;28;20035;-60
2022/07/18 13:46:20;;;;;;;1.73;1.17;;;;;;;;;;8285116;28;20032;-59
2022/07/18 13:50:20;;;;;;;4.75;1.17;;;;;;;;;;8277043;28;20036;-59
2022/07/18 13:54:20;;;;;;;2.47;1.13;;;;;;;;;;8278950;28;20302;-59
2022/07/18 13:58:20;;;;;;;4.03;1.10;;;;;;;;;;8279204;28;20124;-60
2022/07/18 14:02:20;;;;;;;2.83;1.30;;;;;;;;;;8280270;28;20041;-59
2022/07/18 14:06:21;;;;;;;3.95;1.08;;;;;;;;;;8278328;28;20029;-59
2022/07/18 14:10:21;;;;;;;2.37;1.00;;;;;;;;;;8283340;28;20040;-59
2022/07/18 14:14:21;;;;;;;2.67;1.00;;;;;;;;;;8283035;28;20033;-59
2022/07/18 14:18:22;;;;;;;7.97;1.10;;;;;;;;;;8282652;28;21137;-60
2022/07/18 14:22:22;;;;;;;1.63;1.10;;;;;;;;;;8282463;28;20040;-59
2022/07/18 14:26:22;;;;;;;2.70;1.30;;;;;;;;;;8278019;28;20079;-59
2022/07/18 14:30:22;;;;;;;3.67;1.30;;;;;;;;;;8279718;28;20041;-59
2022/07/18 14:34:23;;;;;;;2.43;1.27;;;;;;;;;;8285570;28;20036;-59
2022/07/18 14:38:23;;;;;;;1.10;1.10;;;;;;;;;;8285314;28;20029;-59
2022/07/18 14:42:24;;;;;;;5.13;1.30;;;;;;;;;;8284641;28;20057;-59
2022/07/18 14:46:25;;;;;;;2.75;1.17;;;;;;;;;;8286611;28;20053;-60
2022/07/18 14:50:25;;;;;;;2.92;1.42;;;;;;;;;;8281267;28;20029;-58
2022/07/18 14:54:25;;;;;;;2.50;1.33;;;;;;;;;;8283013;28;20044;-59
2022/07/18 14:58:26;;;;;;;4.28;1.40;;;;;;;;;;8282406;28;20056;-59
2022/07/18 15:02:26;;;;;;;6.63;1.50;;;;;;;;;;8283861;28;20454;-59
2022/07/18 15:06:26;;;;;;;4.13;1.25;;;;;;;;;;8282722;28;20112;-59
2022/07/18 15:10:26;;;;;;;5.03;1.20;;;;;;;;;;8282561;28;20096;-59
2022/07/18 15:14:27;;;;;;;2.90;1.35;;;;;;;;;;8284864;28;20026;-59
2022/07/18 15:18:27;;;;;;;10.00;1.90;;;;;;;;;;8281170;28;20046;-59
2022/07/18 15:22:27;;;;;;;2.75;1.10;;;;;;;;;;8281988;28;20099;-59
2022/07/18 15:26:27;;;;;;;2.80;1.10;;;;;;;;;;8281347;28;20501;-59
2022/07/18 15:35:05;;;;;;;2.95;1.20;;;;;;;;;;8281327;28;20028;-59
2022/07/18 15:39:06;;;;;;;4.27;1.40;;;;;;;;;;8282335;28;20061;-59
2022/07/18 15:43:06;;;;;;;7.15;1.27;;;;;;;;;;8280353;28;20055;-61
2022/07/18 15:47:06;;;;;;;4.57;1.50;;;;;;;;;;8282160;28;20135;-59
2022/07/18 15:51:06;;;;;;;2.40;1.27;;;;;;;;;;8282184;28;20024;-60
2022/07/18 15:55:07;;;;;;;4.30;1.38;;;;;;;;;;8279174;28;20049;-60
2022/07/18 15:59:07;;;;;;;3.87;1.40;;;;;;;;;;8279736;28;20184;-59
2022/07/18 16:03:07;;;;;;;3.35;1.40;;;;;;;;;;8276206;28;20061;-59
2022/07/18 16:07:08;;;;;;;6.07;1.53;;;;;;;;;;8279819;28;20092;-60
2022/07/18 16:11:08;;;;;;;6.30;1.50;;;;;;;;;;8280600;28;20599;-60
2022/07/18 16:15:09;;;;;;;2.47;1.10;;;;;;;;;;8279151;28;20359;-60
2022/07/18 16:19:09;;;;;;;2.67;1.30;;;;;;;;;;8280457;28;20029;-59
2022/07/18 16:23:09;;;;;;;7.10;1.30;;;;;;;;;;8278914;28;20021;-59
2022/07/18 16:27:10;;;;;;;6.72;1.20;;;;;;;;;;8277528;28;20095;-59
2022/07/18 16:31:10;;;;;;;3.27;1.47;;;;;;;;;;8279900;28;20060;-60
2022/07/18 16:35:10;;;;;;;7.18;1.70;;;;;;;;;;8281023;28;20025;-60
2022/07/18 16:39:11;;;;;;;3.03;1.40;;;;;;;;;;8278786;28;20151;-60
2022/07/18 16:43:11;;;;;;;3.10;1.50;;;;;;;;;;8277043;28;20033;-60
2022/07/18 16:47:12;;;;;;;3.63;1.37;;;;;;;;;;8279593;28;20457;-60
2022/07/18 16:51:12;;;;;;;2.13;1.63;;;;;;;;;;8278836;28;20949;-60
2022/07/18 16:55:12;;;;;;;3.47;1.20;;;;;;;;;;8279968;28;20029;-60
2022/07/18 16:59:13;;;;;;;3.13;1.20;;;;;;;;;;8278368;28;20524;-60
2022/07/18 17:03:13;;;;;;;7.00;1.40;;;;;;;;;;8274720;28;20554;-60
2022/07/18 17:07:13;;;;;;;9.23;1.40;;;;;;;;;;8275973;28;20577;-60
2022/07/18 17:11:14;;;;;;;2.27;1.50;;;;;;;;;;8275476;28;20013;-60
2022/07/18 17:15:14;;;;;;;5.83;1.50;;;;;;;;;;8278487;28;20116;-60
2022/07/18 17:19:15;;;;;;;9.88;1.40;;;;;;;;;;8277004;28;20209;-61
2022/07/18 17:23:15;;;;;;;1.17;1.10;;;;;;;;;;8275383;28;20944;-60
2022/07/18 17:27:16;;;;;;;3.85;1.33;;;;;;;;;;8277506;28;20550;-60
2022/07/18 17:31:16;;;;;;;3.10;1.45;;;;;;;;;;8276671;28;20042;-60
2022/07/18 17:35:17;;;;;;;4.85;1.33;;;;;;;;;;8274362;28;20037;-62
2022/07/18 17:39:18;;;;;;;10.73;1.50;;;;;;;;;;8278954;28;20594;-60
2022/07/18 17:43:19;;;;;;;4.93;1.50;;;;;;;;;;8276140;28;20056;-60
2022/07/18 17:47:19;;;;;;;3.55;1.20;;;;;;;;;;8275533;28;20037;-60
2022/07/18 17:51:19;;;;;;;4.83;1.40;;;;;;;;;;8274360;28;20042;-60
2022/07/18 17:55:20;;;;;;;2.95;1.50;;;;;;;;;;8274471;28;20037;-60
2022/07/18 17:59:20;;;;;;;4.68;1.30;;;;;;;;;;8276682;28;20678;-62
2022/07/18 18:03:21;;;;;;;11.07;1.50;;;;;;;;;;8274897;28;20103;-60
2022/07/18 18:07:21;;;;;;;6.03;1.20;;;;;;;;;;8281341;28;20021;-60
2022/07/18 18:11:21;;;;;;;7.05;1.40;;;;;;;;;;8282054;28;20678;-60
2022/07/18 18:15:23;;;;;;;2.40;1.25;;;;;;;;;;8286730;28;20038;-60
2022/07/18 18:19:25;;;;;;;1.95;1.30;;;;;;;;;;8282859;28;20497;-60
2022/07/18 18:23:25;;;;;;;2.90;1.20;;;;;;;;;;8282635;28;20917;-61
2022/07/18 18:27:26;;;;;;;3.03;1.10;;;;;;;;;;8280911;28;20037;-61
2022/07/18 18:31:26;;;;;;;2.70;1.40;;;;;;;;;;8292257;28;20033;-61
2022/07/18 18:35:26;;;;;;;3.63;1.10;;;;;;;;;;8315109;28;20225;-61
2022/07/18 18:39:28;;;;;;;3.72;1.27;;;;;;;;;;8312720;28;20570;-61
2022/07/18 18:43:28;;;;;;;4.60;1.30;;;;;;;;;;8314416;28;20059;-61
2022/07/18 18:47:29;;;;;;;2.92;1.20;;;;;;;;;;8317483;28;20033;-61
2022/07/18 18:51:29;;;;;;;3.35;1.30;;;;;;;;;;8316226;28;20025;-61
2022/07/18 18:55:31;;;;;;;3.80;1.30;;;;;;;;;;8312556;28;20036;-62
2022/07/18 18:59:31;;;;;;;2.38;1.25;;;;;;;;;;8314196;28;20052;-61
2022/07/18 19:03:31;;;;;;;2.85;1.20;;;;;;;;;;8281944;28;20823;-61
2022/07/18 19:07:31;;;;;;;7.20;1.52;;;;;;;;;;8281039;28;20432;-62
2022/07/18 19:11:31;;;;;;;4.53;1.50;;;;;;;;;;8279660;28;20056;-60
2022/07/18 19:15:32;;;;;;;3.80;1.50;;;;;;;;;;8278268;28;20126;-60
2022/07/18 19:19:32;;;;;;;3.10;1.20;;;;;;;;;;8281821;28;20038;-61
2022/07/18 19:23:33;;;;;;;3.47;1.70;;;;;;;;;;8279979;28;20034;-60
2022/07/18 19:27:33;;;;;;;4.00;1.85;;;;;;;;;;8289907;28;20029;-60
2022/07/18 19:31:34;;;;;;;2.15;1.75;;;;;;;;;;8278792;28;20037;-60
2022/07/18 19:35:34;;;;;;;4.25;1.63;;;;;;;;;;8281332;28;20032;-61
2022/07/18 19:39:34;;;;;;;7.20;1.57;;;;;;;;;;8280878;28;20030;-60
2022/07/18 19:43:36;;;;;;;2.10;1.40;;;;;;;;;;8281155;28;20025;-60
2022/07/18 19:47:36;;;;;;;4.15;1.30;;;;;;;;;;8282469;28;20038;-61
2022/07/18 19:51:38;;;;;;;4.15;1.60;;;;;;;;;;8278225;28;20029;-61
2022/07/18 19:55:41;;;;;;;3.42;1.48;;;;;;;;;;8281355;28;20091;-61
2022/07/18 19:59:41;;;;;;;1.63;1.40;;;;;;;;;;8281363;28;20036;-62
2022/07/18 20:03:43;;;;;;;2.25;1.52;;;;;;;;;;8277144;28;20152;-62
2022/07/18 20:07:43;;;;;;;4.03;1.38;;;;;;;;;;8279954;28;20033;-61
2022/07/18 20:11:44;;;;;;;2.43;1.50;;;;;;;;;;8281101;28;20834;-61
2022/07/18 20:15:44;;;;;;;3.00;1.47;;;;;;;;;;8281490;28;20654;-61
2022/07/18 20:19:44;;;;;;;5.78;1.67;;;;;;;;;;8279093;28;20282;-61
2022/07/18 20:23:44;;;;;;;2.83;1.50;;;;;;;;;;8278832;28;20049;-62
2022/07/18 20:27:46;;;;;;;5.33;1.63;;;;;;;;;;8279231;28;20029;-61
2022/07/18 20:31:46;;;;;;;3.47;1.60;;;;;;;;;;8281781;28;20049;-61
2022/07/18 20:35:48;;;;;;;4.30;1.65;;;;;;;;;;8278033;28;20164;-61
2022/07/18 20:39:48;;;;;;;3.90;1.47;;;;;;;;;;8278204;28;20060;-61
2022/07/18 20:43:48;;;;;;;4.38;1.27;;;;;;;;;;8277235;28;20029;-62
2022/07/18 20:47:49;;;;;;;1.40;1.30;;;;;;;;;;8273820;28;20141;-62
2022/07/18 20:51:49;;;;;;;1.95;1.23;;;;;;;;;;8272127;28;20020;-61
2022/07/18 20:55:49;;;;;;;2.73;1.40;;;;;;;;;;8277016;28;20036;-61
2022/07/18 20:59:50;;;;;;;2.25;1.20;;;;;;;;;;8277412;28;20046;-61
2022/07/18 21:03:50;;;;;;;3.13;1.40;;;;;;;;;;8279118;28;20041;-61
2022/07/18 21:07:50;;;;;;;3.57;1.40;;;;;;;;;;8279434;28;20644;-61
2022/07/18 21:11:50;;;;;;;3.80;1.45;;;;;;;;;;8276642;28;20291;-61
2022/07/18 21:15:50;;;;;;;2.45;1.23;;;;;;;;;;8277936;28;20044;-62
2022/07/18 21:19:51;;;;;;;4.18;1.45;;;;;;;;;;8280119;28;20033;-61
2022/07/18 21:23:51;;;;;;;3.33;1.52;;;;;;;;;;8276390;28;20041;-61
2022/07/18 21:27:53;;;;;;;2.03;1.37;;;;;;;;;;8280265;28;20021;-61
2022/07/18 21:31:53;;;;;;;2.75;1.33;;;;;;;;;;8277139;28;20369;-61
2022/07/18 21:35:53;;;;;;;4.82;1.50;;;;;;;;;;8276202;28;20065;-62
2022/07/18 21:39:53;;;;;;;2.87;1.47;;;;;;;;;;8278470;28;20025;-61
2022/07/18 21:43:53;;;;;;;2.50;1.40;;;;;;;;;;8283841;28;20746;-61
2022/07/18 21:47:53;;;;;;;4.63;1.50;;;;;;;;;;8285259;28;20053;-62
2022/07/18 21:51:54;;;;;;;2.63;1.25;;;;;;;;;;8283883;28;20112;-62
2022/07/18 21:55:54;;;;;;;1.77;1.38;;;;;;;;;;8283218;28;20835;-62
2022/07/18 21:59:55;;;;;;;2.50;1.50;;;;;;;;;;8285462;28;20678;-62
2022/07/18 22:03:55;;;;;;;5.37;1.40;;;;;;;;;;8282587;28;20108;-61
2022/07/18 22:07:55;;;;;;;4.17;1.57;;;;;;;;;;8283871;28;20022;-61
2022/07/18 22:11:55;;;;;;;4.90;1.40;;;;;;;;;;8283241;28;20037;-61
2022/07/18 22:15:56;;;;;;;4.63;1.50;;;;;;;;;;8280882;28;20033;-61
2022/07/18 22:19:56;;;;;;;3.00;1.40;;;;;;;;;;8283998;28;20807;-61
2022/07/18 22:23:56;;;;;;;3.38;1.40;;;;;;;;;;8284509;28;20284;-61
2022/07/18 22:27:57;;;;;;;1.30;1.20;;;;;;;;;;8283799;28;20037;-61
2022/07/18 22:31:57;;;;;;;2.17;1.55;;;;;;;;;;8282301;28;20030;-62
2022/07/18 22:35:57;;;;;;;6.32;1.70;;;;;;;;;;8283535;28;20140;-61
2022/07/18 22:39:57;;;;;;;2.25;1.80;;;;;;;;;;8281482;28;20424;-61
2022/07/18 22:43:58;;;;;;;3.30;1.42;;;;;;;;;;8283801;28;20049;-61
2022/07/18 22:47:58;;;;;;;2.88;1.40;;;;;;;;;;8281650;28;20026;-62
2022/07/18 22:51:58;;;;;;;3.47;1.50;;;;;;;;;;8282672;28;20017;-62
2022/07/18 22:55:58;;;;;;;2.17;1.33;;;;;;;;;;8283709;28;20116;-61
2022/07/18 22:59:59;;;;;;;2.60;1.40;;;;;;;;;;8281785;28;20030;-61
2022/07/18 23:03:59;;;;;;;3.77;1.33;;;;;;;;;;8280883;28;20040;-61
2022/07/18 23:08:03;;;;;;;1.75;1.20;;;;;;;;;;8283390;28;20257;-61
2022/07/18 23:12:03;;;;;;;3.20;1.30;;;;;;;;;;8282512;28;20424;-61
2022/07/18 23:16:04;;;;;;;1.43;1.10;;;;;;;;;;8281660;28;20038;-61
2022/07/18 23:20:05;;;;;;;2.70;1.30;;;;;;;;;;8280771;28;20739;-61
2022/07/18 23:24:05;;;;;;;1.70;1.50;;;;;;;;;;8282810;28;20080;-61
2022/07/18 23:28:05;;;;;;;3.10;1.23;;;;;;;;;;8281328;28;20087;-61
2022/07/18 23:32:06;;;;;;;4.20;1.50;;;;;;;;;;8281560;28;20147;-61
2022/07/18 23:36:06;;;;;;;1.40;1.30;;;;;;;;;;8283171;28;20151;-61
2022/07/18 23:40:07;;;;;;;1.88;1.30;;;;;;;;;;8281847;28;20954;-61
2022/07/18 23:44:07;;;;;;;3.65;1.50;;;;;;;;;;8282795;28;20033;-61
2022/07/18 23:48:08;;;;;;;5.35;1.40;;;;;;;;;;8284138;28;20029;-62
2022/07/18 23:52:08;;;;;;;2.13;1.20;;;;;;;;;;8283993;28;20051;-61
2022/07/18 23:56:08;;;;;;;4.25;1.40;;;;;;;;;;8284142;28;20031;-64
